KAUM/AUM METAR and TAF weather

Enter ICAO airport designator
Station Type Date Time Source
KAUM METAR 2022/08/16 18:56 UTC NOAA

KAUM 161856Z AUTO 11005KT 10SM CLR 25/16 A3017 RMK AO2


Station Type Date Time Source
KAUM Decoded METAR 2022/08/16 18:56 UTC NOAA

Austin Municipal, MN, United States (KAUM) 43-40N 092-56W
Aug 16, 2022 - 02:56 PM EDT / 2022.08.16 1856 UTC
Wind: from the ESE (110 degrees) at 6 MPH (5 KT):0
Visibility: 10 mile(s):0
Sky conditions: clear
Temperature: 77 F (25 C)
Dew Point: 60 F (16 C)
Relative Humidity: 57%
Pressure (altimeter): 30.17 in. Hg (1021 hPa)
ob: KAUM 161856Z AUTO 11005KT 10SM CLR 25/16 A3017 RMK AO2
cycle: 19

Station Type Date Time Source
KAUM TAF UTC NOAA

Error!

Example: see airport list